sensor_id;sensor_type;location;lat;lon;timestamp;P1;durP1;ratioP1;P2;durP2;ratioP2
35634;SDS011;21757;43.610;1.440;2023-11-19T17:54:44;49.72;;;25.25;;
35634;SDS011;21757;43.610;1.440;2023-11-19T17:57:30;61.72;;;32.25;;
35634;SDS011;21757;43.610;1.440;2023-11-19T17:59:56;54.92;;;32.30;;
35634;SDS011;21757;43.610;1.440;2023-11-19T18:02:22;56.53;;;33.88;;
35634;SDS011;21757;43.610;1.440;2023-11-19T18:04:49;46.55;;;27.30;;
35634;SDS011;21757;43.610;1.440;2023-11-19T18:07:18;55.97;;;32.65;;
35634;SDS011;21757;43.610;1.440;2023-11-19T18:09:45;50.00;;;30.73;;
35634;SDS011;21757;43.610;1.440;2023-11-19T18:12:12;41.88;;;26.85;;
35634;SDS011;21757;43.610;1.440;2023-11-19T18:14:40;56.95;;;32.13;;
35634;SDS011;21757;43.610;1.440;2023-11-19T18:17:06;49.97;;;31.25;;
35634;SDS011;21757;43.610;1.440;2023-11-19T18:19:36;57.25;;;35.40;;
35634;SDS011;21757;43.610;1.440;2023-11-19T18:22:03;51.45;;;30.38;;
35634;SDS011;21757;43.610;1.440;2023-11-19T18:24:32;62.67;;;36.20;;
35634;SDS011;21757;43.610;1.440;2023-11-19T18:27:01;53.72;;;33.72;;
35634;SDS011;21757;43.610;1.440;2023-11-19T18:29:26;72.07;;;44.05;;
35634;SDS011;21757;43.610;1.440;2023-11-19T18:31:52;66.20;;;42.63;;
35634;SDS011;21757;43.610;1.440;2023-11-19T18:34:20;72.38;;;45.17;;
35634;SDS011;21757;43.610;1.440;2023-11-19T18:36:46;69.40;;;40.45;;
35634;SDS011;21757;43.610;1.440;2023-11-19T18:39:13;55.78;;;33.17;;
35634;SDS011;21757;43.610;1.440;2023-11-19T18:41:39;55.58;;;34.13;;
35634;SDS011;21757;43.610;1.440;2023-11-19T18:44:05;60.35;;;37.20;;
35634;SDS011;21757;43.610;1.440;2023-11-19T18:46:32;54.10;;;33.50;;
35634;SDS011;21757;43.610;1.440;2023-11-19T18:48:58;86.82;;;50.58;;
35634;SDS011;21757;43.610;1.440;2023-11-19T18:51:24;138.60;;;76.90;;
35634;SDS011;21757;43.610;1.440;2023-11-19T18:53:52;183.18;;;72.22;;
35634;SDS011;21757;43.610;1.440;2023-11-19T18:56:18;112.05;;;63.30;;
35634;SDS011;21757;43.610;1.440;2023-11-19T18:58:43;65.93;;;39.35;;
35634;SDS011;21757;43.610;1.440;2023-11-19T19:01:09;44.28;;;26.42;;
35634;SDS011;21757;43.610;1.440;2023-11-19T19:03:37;47.90;;;25.48;;
35634;SDS011;21757;43.610;1.440;2023-11-19T19:06:03;41.55;;;25.90;;
35634;SDS011;21757;43.610;1.440;2023-11-19T19:08:30;48.92;;;28.95;;
35634;SDS011;21757;43.610;1.440;2023-11-19T19:10:58;49.65;;;30.63;;
35634;SDS011;21757;43.610;1.440;2023-11-19T19:13:23;47.53;;;29.30;;
35634;SDS011;21757;43.610;1.440;2023-11-19T19:15:50;54.72;;;31.35;;
35634;SDS011;21757;43.610;1.440;2023-11-19T19:18:16;48.25;;;29.25;;
35634;SDS011;21757;43.610;1.440;2023-11-19T19:20:42;52.65;;;31.23;;
35634;SDS011;21757;43.610;1.440;2023-11-19T19:23:09;65.00;;;40.90;;
35634;SDS011;21757;43.610;1.440;2023-11-19T19:25:35;85.93;;;53.78;;
35634;SDS011;21757;43.610;1.440;2023-11-19T19:28:01;142.63;;;88.85;;
35634;SDS011;21757;43.610;1.440;2023-11-19T19:30:27;200.07;;;131.77;;
35634;SDS011;21757;43.610;1.440;2023-11-19T19:32:53;170.88;;;109.50;;
35634;SDS011;21757;43.610;1.440;2023-11-19T19:35:18;173.23;;;119.10;;
35634;SDS011;21757;43.610;1.440;2023-11-19T19:37:45;168.73;;;114.30;;
35634;SDS011;21757;43.610;1.440;2023-11-19T19:40:11;132.07;;;87.57;;
35634;SDS011;21757;43.610;1.440;2023-11-19T19:42:38;104.32;;;60.45;;
35634;SDS011;21757;43.610;1.440;2023-11-19T19:45:05;49.83;;;31.38;;
35634;SDS011;21757;43.610;1.440;2023-11-19T19:47:31;56.53;;;35.63;;
35634;SDS011;21757;43.610;1.440;2023-11-19T19:49:56;63.78;;;40.35;;
35634;SDS011;21757;43.610;1.440;2023-11-19T19:52:23;63.00;;;40.95;;
35634;SDS011;21757;43.610;1.440;2023-11-19T19:54:49;66.90;;;41.80;;
35634;SDS011;21757;43.610;1.440;2023-11-19T19:57:14;57.35;;;38.78;;
35634;SDS011;21757;43.610;1.440;2023-11-19T19:59:40;60.22;;;37.13;;
35634;SDS011;21757;43.610;1.440;2023-11-19T20:02:06;56.83;;;37.58;;
35634;SDS011;21757;43.610;1.440;2023-11-19T20:04:32;56.35;;;37.58;;
35634;SDS011;21757;43.610;1.440;2023-11-19T20:06:57;55.42;;;38.03;;
35634;SDS011;21757;43.610;1.440;2023-11-19T20:09:23;58.85;;;38.72;;
35634;SDS011;21757;43.610;1.440;2023-11-19T20:11:48;60.90;;;39.65;;
35634;SDS011;21757;43.610;1.440;2023-11-19T20:14:17;63.28;;;39.35;;
35634;SDS011;21757;43.610;1.440;2023-11-19T20:16:47;63.72;;;38.10;;
35634;SDS011;21757;43.610;1.440;2023-11-19T20:19:14;64.47;;;38.42;;
35634;SDS011;21757;43.610;1.440;2023-11-19T20:21:40;64.45;;;38.28;;
35634;SDS011;21757;43.610;1.440;2023-11-19T20:24:06;70.85;;;42.53;;
35634;SDS011;21757;43.610;1.440;2023-11-19T20:26:32;75.45;;;45.47;;
35634;SDS011;21757;43.610;1.440;2023-11-19T20:28:58;92.70;;;52.35;;
35634;SDS011;21757;43.610;1.440;2023-11-19T20:31:24;79.40;;;47.58;;
35634;SDS011;21757;43.610;1.440;2023-11-19T20:33:49;81.00;;;47.60;;
35634;SDS011;21757;43.610;1.440;2023-11-19T20:36:15;60.67;;;38.33;;
35634;SDS011;21757;43.610;1.440;2023-11-19T20:38:41;49.72;;;32.25;;
35634;SDS011;21757;43.610;1.440;2023-11-19T20:41:08;54.97;;;31.98;;
35634;SDS011;21757;43.610;1.440;2023-11-19T20:43:34;52.53;;;32.40;;
35634;SDS011;21757;43.610;1.440;2023-11-19T20:46:00;51.17;;;30.33;;
35634;SDS011;21757;43.610;1.440;2023-11-19T20:48:29;43.33;;;29.48;;
35634;SDS011;21757;43.610;1.440;2023-11-19T20:50:55;46.58;;;29.48;;
35634;SDS011;21757;43.610;1.440;2023-11-19T20:53:21;54.45;;;32.45;;
35634;SDS011;21757;43.610;1.440;2023-11-19T20:55:46;44.20;;;27.80;;
35634;SDS011;21757;43.610;1.440;2023-11-19T20:58:13;49.35;;;30.70;;
35634;SDS011;21757;43.610;1.440;2023-11-19T21:00:39;41.67;;;28.77;;
35634;SDS011;21757;43.610;1.440;2023-11-19T21:03:11;52.08;;;29.67;;
35634;SDS011;21757;43.610;1.440;2023-11-19T21:05:37;46.03;;;30.23;;
35634;SDS011;21757;43.610;1.440;2023-11-19T21:08:04;48.42;;;30.23;;
35634;SDS011;21757;43.610;1.440;2023-11-19T21:10:30;42.85;;;28.73;;
35634;SDS011;21757;43.610;1.440;2023-11-19T21:12:56;49.08;;;31.30;;
35634;SDS011;21757;43.610;1.440;2023-11-19T21:15:22;53.33;;;33.22;;
35634;SDS011;21757;43.610;1.440;2023-11-19T21:17:47;50.20;;;32.63;;
35634;SDS011;21757;43.610;1.440;2023-11-19T21:20:13;49.45;;;30.27;;
35634;SDS011;21757;43.610;1.440;2023-11-19T21:22:39;52.63;;;31.60;;
35634;SDS011;21757;43.610;1.440;2023-11-19T21:25:05;43.10;;;27.63;;
35634;SDS011;21757;43.610;1.440;2023-11-19T21:27:31;41.50;;;27.40;;
35634;SDS011;21757;43.610;1.440;2023-11-19T21:30:00;43.55;;;26.63;;
35634;SDS011;21757;43.610;1.440;2023-11-19T21:32:26;42.15;;;25.77;;
35634;SDS011;21757;43.610;1.440;2023-11-19T21:34:51;41.45;;;26.58;;
35634;SDS011;21757;43.610;1.440;2023-11-19T21:37:17;45.30;;;26.77;;
35634;SDS011;21757;43.610;1.440;2023-11-19T21:39:43;36.10;;;23.75;;
35634;SDS011;21757;43.610;1.440;2023-11-19T21:42:08;36.40;;;24.80;;
35634;SDS011;21757;43.610;1.440;2023-11-19T21:44:34;35.20;;;23.45;;
35634;SDS011;21757;43.610;1.440;2023-11-19T21:47:02;36.28;;;24.23;;
35634;SDS011;21757;43.610;1.440;2023-11-19T21:49:28;39.28;;;23.17;;
35634;SDS011;21757;43.610;1.440;2023-11-19T21:51:53;37.45;;;25.00;;
35634;SDS011;21757;43.610;1.440;2023-11-19T21:54:19;42.55;;;28.10;;
35634;SDS011;21757;43.610;1.440;2023-11-19T21:56:45;49.38;;;34.45;;
35634;SDS011;21757;43.610;1.440;2023-11-19T21:59:12;45.38;;;34.25;;
35634;SDS011;21757;43.610;1.440;2023-11-19T22:01:38;45.65;;;34.05;;
35634;SDS011;21757;43.610;1.440;2023-11-19T22:04:04;44.38;;;32.58;;
35634;SDS011;21757;43.610;1.440;2023-11-19T22:06:30;41.17;;;31.27;;
35634;SDS011;21757;43.610;1.440;2023-11-19T22:08:56;42.47;;;29.10;;
35634;SDS011;21757;43.610;1.440;2023-11-19T22:11:21;38.65;;;29.23;;
35634;SDS011;21757;43.610;1.440;2023-11-19T22:13:50;40.15;;;29.63;;
35634;SDS011;21757;43.610;1.440;2023-11-19T22:16:16;37.03;;;27.30;;
35634;SDS011;21757;43.610;1.440;2023-11-19T22:18:42;42.58;;;28.10;;
35634;SDS011;21757;43.610;1.440;2023-11-19T22:21:08;36.83;;;25.35;;
35634;SDS011;21757;43.610;1.440;2023-11-19T22:23:33;41.10;;;27.08;;
35634;SDS011;21757;43.610;1.440;2023-11-19T22:25:59;40.65;;;26.33;;
35634;SDS011;21757;43.610;1.440;2023-11-19T22:28:26;34.42;;;24.73;;
35634;SDS011;21757;43.610;1.440;2023-11-19T22:30:52;33.13;;;22.65;;
35634;SDS011;21757;43.610;1.440;2023-11-19T22:33:17;30.15;;;20.98;;
35634;SDS011;21757;43.610;1.440;2023-11-19T22:35:43;32.25;;;21.13;;
35634;SDS011;21757;43.610;1.440;2023-11-19T22:38:09;27.88;;;19.92;;
35634;SDS011;21757;43.610;1.440;2023-11-19T22:40:34;29.45;;;20.73;;
35634;SDS011;21757;43.610;1.440;2023-11-19T22:43:00;30.05;;;21.30;;
35634;SDS011;21757;43.610;1.440;2023-11-19T22:45:26;30.30;;;20.92;;
35634;SDS011;21757;43.610;1.440;2023-11-19T22:47:51;30.48;;;19.90;;
35634;SDS011;21757;43.610;1.440;2023-11-19T22:50:17;29.30;;;20.33;;
35634;SDS011;21757;43.610;1.440;2023-11-19T22:52:43;29.95;;;19.90;;
35634;SDS011;21757;43.610;1.440;2023-11-19T22:55:09;27.20;;;18.85;;
35634;SDS011;21757;43.610;1.440;2023-11-19T22:57:36;30.05;;;19.77;;
35634;SDS011;21757;43.610;1.440;2023-11-19T23:00:02;32.22;;;19.63;;
35634;SDS011;21757;43.610;1.440;2023-11-19T23:02:44;27.10;;;19.55;;
35634;SDS011;21757;43.610;1.440;2023-11-19T23:05:10;25.65;;;18.83;;
35634;SDS011;21757;43.610;1.440;2023-11-19T23:07:36;25.35;;;17.52;;
35634;SDS011;21757;43.610;1.440;2023-11-19T23:10:02;26.90;;;18.60;;
35634;SDS011;21757;43.610;1.440;2023-11-19T23:12:30;24.67;;;18.30;;
35634;SDS011;21757;43.610;1.440;2023-11-19T23:14:56;27.33;;;18.45;;
35634;SDS011;21757;43.610;1.440;2023-11-19T23:17:27;26.75;;;18.08;;
35634;SDS011;21757;43.610;1.440;2023-11-19T23:19:53;24.65;;;17.27;;
35634;SDS011;21757;43.610;1.440;2023-11-19T23:22:18;21.38;;;17.00;;
35634;SDS011;21757;43.610;1.440;2023-11-19T23:24:44;26.80;;;16.67;;
35634;SDS011;21757;43.610;1.440;2023-11-19T23:27:09;25.13;;;18.05;;
35634;SDS011;21757;43.610;1.440;2023-11-19T23:29:40;24.67;;;17.75;;
35634;SDS011;21757;43.610;1.440;2023-11-19T23:32:06;25.70;;;17.35;;
35634;SDS011;21757;43.610;1.440;2023-11-19T23:34:32;27.38;;;17.25;;
35634;SDS011;21757;43.610;1.440;2023-11-19T23:36:58;24.38;;;16.83;;
35634;SDS011;21757;43.610;1.440;2023-11-19T23:39:23;23.45;;;17.08;;
35634;SDS011;21757;43.610;1.440;2023-11-19T23:41:50;26.40;;;17.63;;
35634;SDS011;21757;43.610;1.440;2023-11-19T23:44:15;26.73;;;18.02;;
35634;SDS011;21757;43.610;1.440;2023-11-19T23:46:42;27.15;;;17.63;;
35634;SDS011;21757;43.610;1.440;2023-11-19T23:49:07;25.83;;;17.88;;
35634;SDS011;21757;43.610;1.440;2023-11-19T23:51:36;25.75;;;17.48;;
35634;SDS011;21757;43.610;1.440;2023-11-19T23:54:04;26.38;;;18.20;;
35634;SDS011;21757;43.610;1.440;2023-11-19T23:56:30;23.73;;;17.45;;
35634;SDS011;21757;43.610;1.440;2023-11-19T23:58:55;24.13;;;17.65;;
